<?xml version='1.0' encoding='UTF-8'?><gpx version="1.1" creator="JPX - https://github.com/jenetics/jpx" xmlns="http://www.topografix.com/GPX/1/1"><trk><trkseg><trkpt lat="53.76471482181168" lon="11.09788530731048"><ele>50.00000000000001</ele><time>2026-04-20T16:46:20.002Z</time></trkpt><trkpt lat="53.76470482860388" lon="11.097767109553331"><ele>50.0</ele><time>2026-04-20T16:46:22.002Z</time></trkpt><trkpt lat="53.76477732024296" lon="11.097680865434992"><ele>50.0</ele><time>2026-04-20T16:46:25.002Z</time></trkpt><trkpt lat="53.7648687462431" lon="11.097686225439116"><ele>50.0</ele><time>2026-04-20T16:46:27.002Z</time></trkpt><trkpt lat="53.76497956176134" lon="11.097671523338194"><ele>50.00000000000001</ele><time>2026-04-20T16:46:29.002Z</time></trkpt><trkpt lat="53.76504481621975" lon="11.097666563947667"><ele>50.0</ele><time>2026-04-20T16:46:30.002Z</time></trkpt><trkpt lat="53.76511568314989" lon="11.097674768985215"><ele>49.50000000000001</ele><time>2026-04-20T16:46:31.002Z</time></trkpt><trkpt lat="53.76523954918431" lon="11.097692146052196"><ele>49.0</ele><time>2026-04-20T16:46:33.002Z</time></trkpt><trkpt lat="53.765312154034454" lon="11.097685054781634"><ele>48.5</ele><time>2026-04-20T16:46:34.002Z</time></trkpt><trkpt lat="53.76538492696372" lon="11.097674266133332"><ele>48.0</ele><time>2026-04-20T16:46:35.002Z</time></trkpt><trkpt lat="53.76545455114139" lon="11.097628982893703"><ele>47.5</ele><time>2026-04-20T16:46:36.002Z</time></trkpt><trkpt lat="53.76549678471096" lon="11.097525592803374"><ele>47.0</ele><time>2026-04-20T16:46:37.002Z</time></trkpt><trkpt lat="53.765481416139515" lon="11.097372925396348"><ele>47.0</ele><time>2026-04-20T16:46:38.002Z</time></trkpt><trkpt lat="53.765449456288785" lon="11.097202828592687"><ele>47.0</ele><time>2026-04-20T16:46:39.002Z</time></trkpt><trkpt lat="53.76541319777037" lon="11.097024949804839"><ele>47.0</ele><time>2026-04-20T16:46:40.002Z</time></trkpt><trkpt lat="53.76538266170845" lon="11.09683712933628"><ele>47.0</ele><time>2026-04-20T16:46:41.002Z</time></trkpt><trkpt lat="53.7653803856248" lon="11.096641341950436"><ele>47.0</ele><time>2026-04-20T16:46:42.002Z</time></trkpt><trkpt lat="53.76534270135284" lon="11.096468516690438"><ele>47.0</ele><time>2026-04-20T16:46:43.002Z</time></trkpt><trkpt lat="53.765275186714646" lon="11.096341628850526"><ele>47.0</ele><time>2026-04-20T16:46:44.002Z</time></trkpt><trkpt lat="53.765176989885255" lon="11.096319960953881"><ele>47.0</ele><time>2026-04-20T16:46:45.002Z</time></trkpt><trkpt lat="53.76508241716968" lon="11.096319053372081"><ele>47.0</ele><time>2026-04-20T16:46:46.002Z</time></trkpt><trkpt lat="53.764970634824806" lon="11.096329849747077"><ele>47.0</ele><time>2026-04-20T16:46:47.002Z</time></trkpt><trkpt lat="53.76486332181803" lon="11.09629115274824"><ele>47.400000000000006</ele><time>2026-04-20T16:46:48.002Z</time></trkpt><trkpt lat="53.76477142362706" lon="11.0962776182202"><ele>47.800000000000004</ele><time>2026-04-20T16:46:49.002Z</time></trkpt><trkpt lat="53.764695889053435" lon="11.096262821259955"><ele>48.2</ele><time>2026-04-20T16:46:50.002Z</time></trkpt><trkpt lat="53.76461562716448" lon="11.096210069812596"><ele>48.6</ele><time>2026-04-20T16:46:52.002Z</time></trkpt><trkpt lat="53.764618503422795" lon="11.096056958637133"><ele>49.0</ele><time>2026-04-20T16:46:55.003Z</time></trkpt><trkpt lat="53.76470839983977" lon="11.095895499162635"><ele>49.0</ele><time>2026-04-20T16:46:57.003Z</time></trkpt><trkpt lat="53.76479272491476" lon="11.095832689553102"><ele>49.0</ele><time>2026-04-20T16:46:58.003Z</time></trkpt><trkpt lat="53.76487471128956" lon="11.095739321429427"><ele>49.0</ele><time>2026-04-20T16:46:59.003Z</time></trkpt><trkpt lat="53.76496390109678" lon="11.09563774985596"><ele>49.0</ele><time>2026-04-20T16:47:00.003Z</time></trkpt><trkpt lat="53.7650632875309" lon="11.095523857070429"><ele>49.0</ele><time>2026-04-20T16:47:01.003Z</time></trkpt><trkpt lat="53.76516299359773" lon="11.09540685506963"><ele>48.25</ele><time>2026-04-20T16:47:02.003Z</time></trkpt><trkpt lat="53.76524545567559" lon="11.095308918093412"><ele>47.5</ele><time>2026-04-20T16:47:03.003Z</time></trkpt><trkpt lat="53.76530449941303" lon="11.09523680472283"><ele>46.75</ele><time>2026-04-20T16:47:04.003Z</time></trkpt><trkpt lat="53.76546001941855" lon="11.095104656893206"><ele>46.0</ele><time>2026-04-20T16:47:06.003Z</time></trkpt><trkpt lat="53.76552402226663" lon="11.095325411733153"><ele>46.0</ele><time>2026-04-20T16:47:08.003Z</time></trkpt><trkpt lat="53.76557602255615" lon="11.09548083393573"><ele>46.0</ele><time>2026-04-20T16:47:09.003Z</time></trkpt><trkpt lat="53.76563663437786" lon="11.095654446043564"><ele>46.0</ele><time>2026-04-20T16:47:10.003Z</time></trkpt><trkpt lat="53.76569346917624" lon="11.095851943389631"><ele>46.0</ele><time>2026-04-20T16:47:11.003Z</time></trkpt><trkpt lat="53.76575309300234" lon="11.09605664262078"><ele>46.25</ele><time>2026-04-20T16:47:12.003Z</time></trkpt><trkpt lat="53.76581795214871" lon="11.096257110607972"><ele>46.5</ele><time>2026-04-20T16:47:13.003Z</time></trkpt><trkpt lat="53.76588496339946" lon="11.09647268506208"><ele>46.75</ele><time>2026-04-20T16:47:14.003Z</time></trkpt><trkpt lat="53.765954082398075" lon="11.096705314960456"><ele>47.0</ele><time>2026-04-20T16:47:15.003Z</time></trkpt><trkpt lat="53.76601438898122" lon="11.096953239485757"><ele>46.33333333333333</ele><time>2026-04-20T16:47:16.003Z</time></trkpt><trkpt lat="53.76607717136359" lon="11.097207033228994"><ele>45.666666666666664</ele><time>2026-04-20T16:47:17.003Z</time></trkpt><trkpt lat="53.76615395092092" lon="11.097461748102631"><ele>45.0</ele><time>2026-04-20T16:47:18.003Z</time></trkpt><trkpt lat="53.76623581285532" lon="11.097714298319138"><ele>45.0</ele><time>2026-04-20T16:47:19.003Z</time></trkpt><trkpt lat="53.7663462101515" lon="11.097914383604918"><ele>45.0</ele><time>2026-04-20T16:47:20.003Z</time></trkpt><trkpt lat="53.76647551137862" lon="11.098102027098847"><ele>45.0</ele><time>2026-04-20T16:47:21.003Z</time></trkpt><trkpt lat="53.76663842625313" lon="11.098254770760857"><ele>45.0</ele><time>2026-04-20T16:47:22.003Z</time></trkpt><trkpt lat="53.76681196526759" lon="11.09837109708999"><ele>45.0</ele><time>2026-04-20T16:47:23.003Z</time></trkpt><trkpt lat="53.7669833087765" lon="11.098471028271595"><ele>45.0</ele><time>2026-04-20T16:47:24.003Z</time></trkpt><trkpt lat="53.767153168068" lon="11.098563632964684"><ele>44.666666666666664</ele><time>2026-04-20T16:47:25.003Z</time></trkpt><trkpt lat="53.76732097803928" lon="11.098671387163291"><ele>44.33333333333333</ele><time>2026-04-20T16:47:26.003Z</time></trkpt><trkpt lat="53.767478549268375" lon="11.098786304307517"><ele>44.0</ele><time>2026-04-20T16:47:27.004Z</time></trkpt><trkpt lat="53.7676236954101" lon="11.09892583045858"><ele>43.33333333333333</ele><time>2026-04-20T16:47:28.004Z</time></trkpt><trkpt lat="53.767755835787305" lon="11.0990881029196"><ele>42.666666666666664</ele><time>2026-04-20T16:47:29.004Z</time></trkpt><trkpt lat="53.76788221551271" lon="11.09925818473822"><ele>42.0</ele><time>2026-04-20T16:47:30.004Z</time></trkpt><trkpt lat="53.76801775298047" lon="11.099443136281261"><ele>42.0</ele><time>2026-04-20T16:47:31.004Z</time></trkpt><trkpt lat="53.768161423473025" lon="11.09963891194696"><ele>42.0</ele><time>2026-04-20T16:47:32.004Z</time></trkpt><trkpt lat="53.768302781354436" lon="11.099827426868313"><ele>42.0</ele><time>2026-04-20T16:47:33.004Z</time></trkpt><trkpt lat="53.76844662098724" lon="11.1000245855853"><ele>43.0</ele><time>2026-04-20T16:47:34.004Z</time></trkpt><trkpt lat="53.76858750370506" lon="11.100223366358563"><ele>44.0</ele><time>2026-04-20T16:47:35.004Z</time></trkpt><trkpt lat="53.76873465350436" lon="11.100432202063462"><ele>45.0</ele><time>2026-04-20T16:47:36.004Z</time></trkpt><trkpt lat="53.76886446854106" lon="11.100617272585362"><ele>44.0</ele><time>2026-04-20T16:47:37.004Z</time></trkpt><trkpt lat="53.76900275788878" lon="11.100816505176914"><ele>43.0</ele><time>2026-04-20T16:47:38.004Z</time></trkpt><trkpt lat="53.7691262279286" lon="11.101003421180572"><ele>42.0</ele><time>2026-04-20T16:47:39.004Z</time></trkpt><trkpt lat="53.769253072564084" lon="11.101210250087366"><ele>44.33333333333333</ele><time>2026-04-20T16:47:40.004Z</time></trkpt><trkpt lat="53.76937137119879" lon="11.101413274491453"><ele>46.666666666666664</ele><time>2026-04-20T16:47:41.004Z</time></trkpt><trkpt lat="53.76948086224894" lon="11.10161058076559"><ele>49.0</ele><time>2026-04-20T16:47:42.004Z</time></trkpt><trkpt lat="53.76958658043269" lon="11.10182414167467"><ele>49.0</ele><time>2026-04-20T16:47:43.004Z</time></trkpt><trkpt lat="53.769689948809166" lon="11.102026428076828"><ele>49.0</ele><time>2026-04-20T16:47:44.004Z</time></trkpt><trkpt lat="53.76980543915466" lon="11.10223787812524"><ele>49.0</ele><time>2026-04-20T16:47:45.004Z</time></trkpt><trkpt lat="53.76992111161202" lon="11.102429539453771"><ele>49.0</ele><time>2026-04-20T16:47:46.004Z</time></trkpt><trkpt lat="53.77005656232721" lon="11.102623703728522"><ele>49.0</ele><time>2026-04-20T16:47:47.004Z</time></trkpt><trkpt lat="53.77019413953782" lon="11.10279187963701"><ele>49.0</ele><time>2026-04-20T16:47:48.004Z</time></trkpt><trkpt lat="53.770324163267034" lon="11.10294182250814"><ele>49.0</ele><time>2026-04-20T16:47:49.004Z</time></trkpt><trkpt lat="53.77045732634398" lon="11.103088788498551"><ele>49.0</ele><time>2026-04-20T16:47:50.004Z</time></trkpt><trkpt lat="53.770588338833214" lon="11.103232987796895"><ele>49.0</ele><time>2026-04-20T16:47:51.004Z</time></trkpt><trkpt lat="53.77072471524151" lon="11.103382189938566"><ele>48.25</ele><time>2026-04-20T16:47:52.004Z</time></trkpt><trkpt lat="53.77084582850863" lon="11.103514163195927"><ele>47.5</ele><time>2026-04-20T16:47:53.004Z</time></trkpt><trkpt lat="53.77097076204092" lon="11.103648913722663"><ele>46.75</ele><time>2026-04-20T16:47:54.004Z</time></trkpt><trkpt lat="53.771101026433726" lon="11.103790900625881"><ele>46.0</ele><time>2026-04-20T16:47:55.004Z</time></trkpt><trkpt lat="53.771224505157484" lon="11.103928768497761"><ele>47.75</ele><time>2026-04-20T16:47:56.004Z</time></trkpt><trkpt lat="53.77134304367076" lon="11.104060793528703"><ele>49.5</ele><time>2026-04-20T16:47:57.004Z</time></trkpt><trkpt lat="53.77146295949493" lon="11.104192117636693"><ele>51.25</ele><time>2026-04-20T16:47:58.004Z</time></trkpt><trkpt lat="53.7715766056156" lon="11.104314485538925"><ele>53.0</ele><time>2026-04-20T16:47:59.004Z</time></trkpt><trkpt lat="53.7717005858777" lon="11.104446409205945"><ele>53.0</ele><time>2026-04-20T16:48:00.004Z</time></trkpt><trkpt lat="53.771814722802496" lon="11.104566827665865"><ele>53.0</ele><time>2026-04-20T16:48:01.004Z</time></trkpt><trkpt lat="53.77192037148576" lon="11.104681212176166"><ele>53.0</ele><time>2026-04-20T16:48:02.005Z</time></trkpt><trkpt lat="53.77204629180269" lon="11.104822294669288"><ele>53.0</ele><time>2026-04-20T16:48:03.005Z</time></trkpt><trkpt lat="53.77217259527619" lon="11.104963415449172"><ele>54.5</ele><time>2026-04-20T16:48:04.005Z</time></trkpt><trkpt lat="53.772293190158074" lon="11.105096884385645"><ele>56.0</ele><time>2026-04-20T16:48:05.005Z</time></trkpt><trkpt lat="53.77240243185608" lon="11.105217970657174"><ele>57.5</ele><time>2026-04-20T16:48:06.005Z</time></trkpt><trkpt lat="53.77252003764921" lon="11.105351467121215"><ele>59.0</ele><time>2026-04-20T16:48:07.005Z</time></trkpt><trkpt lat="53.772625252544316" lon="11.105470898465741"><ele>58.75</ele><time>2026-04-20T16:48:08.005Z</time></trkpt><trkpt lat="53.77275906935233" lon="11.105595673547029"><ele>58.5</ele><time>2026-04-20T16:48:09.005Z</time></trkpt><trkpt lat="53.772872110173346" lon="11.105746072989698"><ele>58.25</ele><time>2026-04-20T16:48:10.005Z</time></trkpt><trkpt lat="53.7730051549099" lon="11.105860681483101"><ele>58.0</ele><time>2026-04-20T16:48:11.005Z</time></trkpt><trkpt lat="53.773135178599155" lon="11.10602508875515"><ele>58.0</ele><time>2026-04-20T16:48:12.005Z</time></trkpt><trkpt lat="53.773270452147024" lon="11.10619324277878"><ele>58.0</ele><time>2026-04-20T16:48:13.005Z</time></trkpt><trkpt lat="53.773422580058494" lon="11.106354079296858"><ele>58.0</ele><time>2026-04-20T16:48:14.005Z</time></trkpt><trkpt lat="53.77357294293968" lon="11.10652008316808"><ele>58.33333333333333</ele><time>2026-04-20T16:48:15.005Z</time></trkpt><trkpt lat="53.77372078854993" lon="11.106675302477525"><ele>58.66666666666667</ele><time>2026-04-20T16:48:16.005Z</time></trkpt><trkpt lat="53.7738617565985" lon="11.106860963896713"><ele>59.0</ele><time>2026-04-20T16:48:17.005Z</time></trkpt><trkpt lat="53.774004717492176" lon="11.10703304310404"><ele>59.0</ele><time>2026-04-20T16:48:18.005Z</time></trkpt><trkpt lat="53.77413338470503" lon="11.107306272264289"><ele>59.0</ele><time>2026-04-20T16:48:19.005Z</time></trkpt><trkpt lat="53.77425068760188" lon="11.10753795844138"><ele>59.0</ele><time>2026-04-20T16:48:20.005Z</time></trkpt><trkpt lat="53.774318157831416" lon="11.107771704262033"><ele>58.0</ele><time>2026-04-20T16:48:21.005Z</time></trkpt><trkpt lat="53.774352058642286" lon="11.108037392749898"><ele>57.0</ele><time>2026-04-20T16:48:22.005Z</time></trkpt><trkpt lat="53.77437554644902" lon="11.108340960547256"><ele>56.0</ele><time>2026-04-20T16:48:23.005Z</time></trkpt><trkpt lat="53.774395716490325" lon="11.108672015191878"><ele>56.0</ele><time>2026-04-20T16:48:24.005Z</time></trkpt><trkpt lat="53.77441220277831" lon="11.108950219761812"><ele>56.0</ele><time>2026-04-20T16:48:25.005Z</time></trkpt><trkpt lat="53.77442957754244" lon="11.109187969173707"><ele>56.0</ele><time>2026-04-20T16:48:26.005Z</time></trkpt><trkpt lat="53.77441011429636" lon="11.109436122151093"><ele>56.0</ele><time>2026-04-20T16:48:27.005Z</time></trkpt><trkpt lat="53.77440944439514" lon="11.109679024276648"><ele>56.0</ele><time>2026-04-20T16:48:28.005Z</time></trkpt><trkpt lat="53.774415745595654" lon="11.10991574959824"><ele>56.0</ele><time>2026-04-20T16:48:29.005Z</time></trkpt><trkpt lat="53.77444145299332" lon="11.110135312506381"><ele>56.0</ele><time>2026-04-20T16:48:30.005Z</time></trkpt><trkpt lat="53.77449681809457" lon="11.110353123450997"><ele>55.75</ele><time>2026-04-20T16:48:31.005Z</time></trkpt><trkpt lat="53.77452222682516" lon="11.11056021809999"><ele>55.5</ele><time>2026-04-20T16:48:32.005Z</time></trkpt><trkpt lat="53.77452933505083" lon="11.110786216618353"><ele>55.25</ele><time>2026-04-20T16:48:33.005Z</time></trkpt><trkpt lat="53.77455025657783" lon="11.111015576697792"><ele>55.0</ele><time>2026-04-20T16:48:34.005Z</time></trkpt><trkpt lat="53.77456457926088" lon="11.111251388431521"><ele>54.25</ele><time>2026-04-20T16:48:35.005Z</time></trkpt><trkpt lat="53.77457366236357" lon="11.111498669779063"><ele>53.5</ele><time>2026-04-20T16:48:36.006Z</time></trkpt><trkpt lat="53.77458803173235" lon="11.111743465140778"><ele>52.75</ele><time>2026-04-20T16:48:37.006Z</time></trkpt><trkpt lat="53.774603686607165" lon="11.111979889740896"><ele>52.0</ele><time>2026-04-20T16:48:38.006Z</time></trkpt><trkpt lat="53.7746132550603" lon="11.112222816495866"><ele>51.0</ele><time>2026-04-20T16:48:39.006Z</time></trkpt><trkpt lat="53.77463206625898" lon="11.112469728894101"><ele>50.0</ele><time>2026-04-20T16:48:40.006Z</time></trkpt><trkpt lat="53.77462620720144" lon="11.112753247249099"><ele>49.0</ele><time>2026-04-20T16:48:41.006Z</time></trkpt><trkpt lat="53.774644453440494" lon="11.113028615221824"><ele>48.666666666666664</ele><time>2026-04-20T16:48:42.006Z</time></trkpt><trkpt lat="53.77467326334715" lon="11.113315280510358"><ele>48.33333333333333</ele><time>2026-04-20T16:48:43.006Z</time></trkpt><trkpt lat="53.774693807095595" lon="11.113613775228853"><ele>48.0</ele><time>2026-04-20T16:48:44.006Z</time></trkpt><trkpt lat="53.774762736945526" lon="11.113878180222613"><ele>47.666666666666664</ele><time>2026-04-20T16:48:45.006Z</time></trkpt><trkpt lat="53.77486940140318" lon="11.114081514927628"><ele>47.33333333333333</ele><time>2026-04-20T16:48:46.006Z</time></trkpt><trkpt lat="53.77493607428811" lon="11.114347768935708"><ele>47.0</ele><time>2026-04-20T16:48:47.006Z</time></trkpt><trkpt lat="53.77505738450523" lon="11.114548212525364"><ele>47.0</ele><time>2026-04-20T16:48:48.006Z</time></trkpt><trkpt lat="53.775142405223086" lon="11.114792020572732"><ele>47.0</ele><time>2026-04-20T16:48:49.006Z</time></trkpt><trkpt lat="53.77523320677223" lon="11.115005423799921"><ele>47.0</ele><time>2026-04-20T16:48:50.006Z</time></trkpt><trkpt lat="53.775332452080896" lon="11.115179651669457"><ele>48.33333333333333</ele><time>2026-04-20T16:48:51.006Z</time></trkpt><trkpt lat="53.77542937869568" lon="11.115368844599546"><ele>49.666666666666664</ele><time>2026-04-20T16:48:52.006Z</time></trkpt><trkpt lat="53.77554218618849" lon="11.11555707912514"><ele>51.0</ele><time>2026-04-20T16:48:53.006Z</time></trkpt><trkpt lat="53.77563382342579" lon="11.115787094468814"><ele>51.66666666666667</ele><time>2026-04-20T16:48:54.006Z</time></trkpt><trkpt lat="53.77571109545774" lon="11.116002348011735"><ele>52.333333333333336</ele><time>2026-04-20T16:48:55.006Z</time></trkpt><trkpt lat="53.77579906916016" lon="11.116223045326867"><ele>53.0</ele><time>2026-04-20T16:48:56.006Z</time></trkpt><trkpt lat="53.77589587646128" lon="11.116483560583001"><ele>53.0</ele><time>2026-04-20T16:48:57.006Z</time></trkpt><trkpt lat="53.7759845341301" lon="11.11669332021114"><ele>53.0</ele><time>2026-04-20T16:48:58.006Z</time></trkpt><trkpt lat="53.776084340479116" lon="11.11691067265286"><ele>53.0</ele><time>2026-04-20T16:48:59.006Z</time></trkpt><trkpt lat="53.77618660962821" lon="11.117146746088643"><ele>53.333333333333336</ele><time>2026-04-20T16:49:00.006Z</time></trkpt><trkpt lat="53.776278594733824" lon="11.117394170092439"><ele>53.66666666666667</ele><time>2026-04-20T16:49:01.006Z</time></trkpt><trkpt lat="53.77638479845245" lon="11.117600120675366"><ele>54.0</ele><time>2026-04-20T16:49:02.006Z</time></trkpt><trkpt lat="53.776448620765485" lon="11.117806940820232"><ele>54.2</ele><time>2026-04-20T16:49:03.006Z</time></trkpt><trkpt lat="53.77652073328251" lon="11.117993344918581"><ele>54.400000000000006</ele><time>2026-04-20T16:49:04.006Z</time></trkpt><trkpt lat="53.77657307332507" lon="11.118141943134834"><ele>54.6</ele><time>2026-04-20T16:49:05.006Z</time></trkpt><trkpt lat="53.776630001115436" lon="11.11827758772997"><ele>54.8</ele><time>2026-04-20T16:49:06.006Z</time></trkpt><trkpt lat="53.77665353844899" lon="11.118430246731124"><ele>55.0</ele><time>2026-04-20T16:49:07.006Z</time></trkpt><trkpt lat="53.77666709061309" lon="11.118545090280183"><ele>55.0</ele><time>2026-04-20T16:49:08.006Z</time></trkpt><trkpt lat="53.776732547810724" lon="11.118522039033042"><ele>55.0</ele><time>2026-04-20T16:49:11.007Z</time></trkpt><trkpt lat="53.77671959480373" lon="11.11821155161286"><ele>55.0</ele><time>2026-04-20T16:49:50.008Z</time></trkpt><trkpt lat="53.77665961621017" lon="11.118099979092806"><ele>55.0</ele><time>2026-04-20T16:49:52.008Z</time></trkpt><trkpt lat="53.7766027874224" lon="11.117979680457871"><ele>55.0</ele><time>2026-04-20T16:49:53.008Z</time></trkpt><trkpt lat="53.77652652833411" lon="11.117886191402972"><ele>55.0</ele><time>2026-04-20T16:49:54.008Z</time></trkpt><trkpt lat="53.776492968418644" lon="11.117759133346775"><ele>55.0</ele><time>2026-04-20T16:49:55.008Z</time></trkpt><trkpt lat="53.77646513040435" lon="11.117646679413864"><ele>55.0</ele><time>2026-04-20T16:49:56.008Z</time></trkpt><trkpt lat="53.7764511738921" lon="11.11747356484579"><ele>55.0</ele><time>2026-04-20T16:49:57.008Z</time></trkpt><trkpt lat="53.776361765637006" lon="11.117344462638885"><ele>55.0</ele><time>2026-04-20T16:49:58.008Z</time></trkpt><trkpt lat="53.776272703405844" lon="11.117181503294999"><ele>54.75</ele><time>2026-04-20T16:49:59.008Z</time></trkpt><trkpt lat="53.77618531869047" lon="11.117012454783868"><ele>54.5</ele><time>2026-04-20T16:50:00.008Z</time></trkpt><trkpt lat="53.77611004625711" lon="11.116841980756172"><ele>54.25</ele><time>2026-04-20T16:50:01.008Z</time></trkpt><trkpt lat="53.77602698186449" lon="11.116648813922534"><ele>54.0</ele><time>2026-04-20T16:50:02.008Z</time></trkpt><trkpt lat="53.77594051657192" lon="11.116417185786574"><ele>53.66666666666667</ele><time>2026-04-20T16:50:03.008Z</time></trkpt><trkpt lat="53.77584857318883" lon="11.116208441948096"><ele>53.333333333333336</ele><time>2026-04-20T16:50:04.008Z</time></trkpt><trkpt lat="53.77574735996453" lon="11.115984544657394"><ele>53.0</ele><time>2026-04-20T16:50:05.008Z</time></trkpt><trkpt lat="53.775653120118776" lon="11.115764473209316"><ele>52.333333333333336</ele><time>2026-04-20T16:50:06.008Z</time></trkpt><trkpt lat="53.77556207066424" lon="11.115520425379785"><ele>51.66666666666667</ele><time>2026-04-20T16:50:07.008Z</time></trkpt><trkpt lat="53.775471298380936" lon="11.115271017085096"><ele>51.0</ele><time>2026-04-20T16:50:08.008Z</time></trkpt><trkpt lat="53.77538107008506" lon="11.114990559968778"><ele>50.66666666666667</ele><time>2026-04-20T16:50:09.008Z</time></trkpt><trkpt lat="53.77528758454334" lon="11.114726404127035"><ele>50.333333333333336</ele><time>2026-04-20T16:50:10.008Z</time></trkpt><trkpt lat="53.775179791262005" lon="11.114499553599186"><ele>50.0</ele><time>2026-04-20T16:50:11.008Z</time></trkpt><trkpt lat="53.775074454437245" lon="11.114207532221236"><ele>49.333333333333336</ele><time>2026-04-20T16:50:12.008Z</time></trkpt><trkpt lat="53.77495280450411" lon="11.113943340706822"><ele>48.66666666666667</ele><time>2026-04-20T16:50:13.008Z</time></trkpt><trkpt lat="53.7748423122403" lon="11.113676458908058"><ele>48.0</ele><time>2026-04-20T16:50:14.008Z</time></trkpt><trkpt lat="53.77474316978056" lon="11.113395543811613"><ele>48.33333333333333</ele><time>2026-04-20T16:50:15.008Z</time></trkpt><trkpt lat="53.77472982548594" lon="11.113044985684315"><ele>48.666666666666664</ele><time>2026-04-20T16:50:16.008Z</time></trkpt><trkpt lat="53.77472258125535" lon="11.112745049469412"><ele>49.0</ele><time>2026-04-20T16:50:17.008Z</time></trkpt><trkpt lat="53.77471023909904" lon="11.112499381045263"><ele>49.666666666666664</ele><time>2026-04-20T16:50:18.008Z</time></trkpt><trkpt lat="53.77466921702827" lon="11.112251196336763"><ele>50.33333333333333</ele><time>2026-04-20T16:50:19.008Z</time></trkpt><trkpt lat="53.77464518648899" lon="11.11197845227882"><ele>51.0</ele><time>2026-04-20T16:50:20.009Z</time></trkpt><trkpt lat="53.77463657813184" lon="11.111696911860534"><ele>51.33333333333333</ele><time>2026-04-20T16:50:21.009Z</time></trkpt><trkpt lat="53.774593371998854" lon="11.111450063841822"><ele>51.666666666666664</ele><time>2026-04-20T16:50:22.009Z</time></trkpt><trkpt lat="53.774577560668924" lon="11.111151108519685"><ele>52.0</ele><time>2026-04-20T16:50:23.009Z</time></trkpt><trkpt lat="53.77455224607222" lon="11.11086088624047"><ele>53.0</ele><time>2026-04-20T16:50:24.009Z</time></trkpt><trkpt lat="53.77453902715165" lon="11.110564123618895"><ele>54.0</ele><time>2026-04-20T16:50:25.009Z</time></trkpt><trkpt lat="53.774540319773074" lon="11.110276531874486"><ele>55.0</ele><time>2026-04-20T16:50:26.009Z</time></trkpt><trkpt lat="53.77452318038885" lon="11.109921042695145"><ele>55.33333333333333</ele><time>2026-04-20T16:50:27.009Z</time></trkpt><trkpt lat="53.77451499892946" lon="11.109615406264266"><ele>55.66666666666667</ele><time>2026-04-20T16:50:28.009Z</time></trkpt><trkpt lat="53.774498451120074" lon="11.109328031232243"><ele>56.0</ele><time>2026-04-20T16:50:29.009Z</time></trkpt><trkpt lat="53.77447034019914" lon="11.10903768379447"><ele>56.0</ele><time>2026-04-20T16:50:30.009Z</time></trkpt><trkpt lat="53.77444469489908" lon="11.108735047083474"><ele>56.0</ele><time>2026-04-20T16:50:31.009Z</time></trkpt><trkpt lat="53.774428107100995" lon="11.108476451885661"><ele>56.0</ele><time>2026-04-20T16:50:32.009Z</time></trkpt><trkpt lat="53.774405893089686" lon="11.108247621124066"><ele>56.0</ele><time>2026-04-20T16:50:33.009Z</time></trkpt><trkpt lat="53.77437446539192" lon="11.108002666151632"><ele>56.0</ele><time>2026-04-20T16:50:34.009Z</time></trkpt><trkpt lat="53.774378614800455" lon="11.107753766493238"><ele>56.0</ele><time>2026-04-20T16:50:35.009Z</time></trkpt><trkpt lat="53.77434311111106" lon="11.107552756305488"><ele>56.0</ele><time>2026-04-20T16:50:36.009Z</time></trkpt><trkpt lat="53.77428145426609" lon="11.107363922364984"><ele>56.75</ele><time>2026-04-20T16:50:37.009Z</time></trkpt><trkpt lat="53.77422075842862" lon="11.107182373947442"><ele>57.5</ele><time>2026-04-20T16:50:38.009Z</time></trkpt><trkpt lat="53.774114349345744" lon="11.107015794460363"><ele>58.25</ele><time>2026-04-20T16:50:39.009Z</time></trkpt><trkpt lat="53.773996290900534" lon="11.106882969593313"><ele>59.0</ele><time>2026-04-20T16:50:40.009Z</time></trkpt><trkpt lat="53.77386072853521" lon="11.106745105273582"><ele>59.0</ele><time>2026-04-20T16:50:41.009Z</time></trkpt><trkpt lat="53.77373018709207" lon="11.106614419828446"><ele>59.0</ele><time>2026-04-20T16:50:42.009Z</time></trkpt><trkpt lat="53.77359422014532" lon="11.106483422562023"><ele>59.0</ele><time>2026-04-20T16:50:43.009Z</time></trkpt><trkpt lat="53.773474745482794" lon="11.10630661264362"><ele>58.66666666666667</ele><time>2026-04-20T16:50:44.009Z</time></trkpt><trkpt lat="53.77333735918233" lon="11.106168539779372"><ele>58.33333333333333</ele><time>2026-04-20T16:50:45.009Z</time></trkpt><trkpt lat="53.77320706856854" lon="11.105990463391722"><ele>58.0</ele><time>2026-04-20T16:50:46.009Z</time></trkpt><trkpt lat="53.77307177168703" lon="11.10585495886004"><ele>58.33333333333333</ele><time>2026-04-20T16:50:47.009Z</time></trkpt><trkpt lat="53.77292006630142" lon="11.105700815709818"><ele>58.66666666666667</ele><time>2026-04-20T16:50:48.009Z</time></trkpt><trkpt lat="53.77278749540363" lon="11.105532399592391"><ele>59.0</ele><time>2026-04-20T16:50:49.009Z</time></trkpt><trkpt lat="53.7726561940424" lon="11.105333870539825"><ele>59.0</ele><time>2026-04-20T16:50:50.009Z</time></trkpt><trkpt lat="53.77250634110157" lon="11.105183760611142"><ele>59.0</ele><time>2026-04-20T16:50:51.009Z</time></trkpt><trkpt lat="53.77236178087046" lon="11.105021811427081"><ele>59.0</ele><time>2026-04-20T16:50:52.009Z</time></trkpt><trkpt lat="53.77220898551483" lon="11.104872368306859"><ele>58.66666666666667</ele><time>2026-04-20T16:50:53.009Z</time></trkpt><trkpt lat="53.772042191685614" lon="11.104709203335805"><ele>58.33333333333333</ele><time>2026-04-20T16:50:54.01Z</time></trkpt><trkpt lat="53.771885074617124" lon="11.10451655001839"><ele>58.0</ele><time>2026-04-20T16:50:55.01Z</time></trkpt><trkpt lat="53.77172434768156" lon="11.10433918506163"><ele>57.0</ele><time>2026-04-20T16:50:56.01Z</time></trkpt><trkpt lat="53.77157379882781" lon="11.10414893534029"><ele>56.0</ele><time>2026-04-20T16:50:57.01Z</time></trkpt><trkpt lat="53.77139943054148" lon="11.10396033030511"><ele>55.0</ele><time>2026-04-20T16:50:58.01Z</time></trkpt><trkpt lat="53.77122887692651" lon="11.103777752986751"><ele>55.0</ele><time>2026-04-20T16:50:59.01Z</time></trkpt><trkpt lat="53.77106208710229" lon="11.103606800510537"><ele>55.0</ele><time>2026-04-20T16:51:00.01Z</time></trkpt><trkpt lat="53.770880221486735" lon="11.103450610412988"><ele>55.0</ele><time>2026-04-20T16:51:01.01Z</time></trkpt><trkpt lat="53.7707118593554" lon="11.103277064000771"><ele>53.0</ele><time>2026-04-20T16:51:02.01Z</time></trkpt><trkpt lat="53.77055944087607" lon="11.103078553122028"><ele>51.0</ele><time>2026-04-20T16:51:03.01Z</time></trkpt><trkpt lat="53.77039034405241" lon="11.102913699163802"><ele>49.0</ele><time>2026-04-20T16:51:04.01Z</time></trkpt><trkpt lat="53.770228466817805" lon="11.102723147965298"><ele>49.0</ele><time>2026-04-20T16:51:05.01Z</time></trkpt><trkpt lat="53.77005157117941" lon="11.102546891570528"><ele>49.0</ele><time>2026-04-20T16:51:06.01Z</time></trkpt><trkpt lat="53.76989205355152" lon="11.102344200969736"><ele>49.0</ele><time>2026-04-20T16:51:07.01Z</time></trkpt><trkpt lat="53.76976342509609" lon="11.10207949756505"><ele>49.0</ele><time>2026-04-20T16:51:08.01Z</time></trkpt><trkpt lat="53.76963099881448" lon="11.101825340365362"><ele>49.0</ele><time>2026-04-20T16:51:09.01Z</time></trkpt><trkpt lat="53.769498987610035" lon="11.101560241699769"><ele>49.0</ele><time>2026-04-20T16:51:10.01Z</time></trkpt><trkpt lat="53.76935867604797" lon="11.101311465323137"><ele>47.666666666666664</ele><time>2026-04-20T16:51:11.01Z</time></trkpt><trkpt lat="53.76920942448707" lon="11.101089307079544"><ele>46.33333333333333</ele><time>2026-04-20T16:51:12.01Z</time></trkpt><trkpt lat="53.76906878838226" lon="11.100839906007872"><ele>45.0</ele><time>2026-04-20T16:51:13.01Z</time></trkpt><trkpt lat="53.76892304495184" lon="11.100627407378958"><ele>45.0</ele><time>2026-04-20T16:51:14.01Z</time></trkpt><trkpt lat="53.76877583319614" lon="11.100417461976939"><ele>45.0</ele><time>2026-04-20T16:51:15.01Z</time></trkpt><trkpt lat="53.768628877726144" lon="11.100208609900953"><ele>45.0</ele><time>2026-04-20T16:51:16.01Z</time></trkpt><trkpt lat="53.768485975011735" lon="11.100006978942577"><ele>44.0</ele><time>2026-04-20T16:51:17.01Z</time></trkpt><trkpt lat="53.76833890268129" lon="11.099804613464078"><ele>43.0</ele><time>2026-04-20T16:51:18.01Z</time></trkpt><trkpt lat="53.768194253541836" lon="11.099611253414487"><ele>42.0</ele><time>2026-04-20T16:51:19.01Z</time></trkpt><trkpt lat="53.76805196041553" lon="11.099417727561248"><ele>42.0</ele><time>2026-04-20T16:51:20.01Z</time></trkpt><trkpt lat="53.76790766825121" lon="11.099220679131996"><ele>42.0</ele><time>2026-04-20T16:51:21.01Z</time></trkpt><trkpt lat="53.767761361919106" lon="11.09902525322126"><ele>42.0</ele><time>2026-04-20T16:51:22.01Z</time></trkpt><trkpt lat="53.76761410709185" lon="11.09884752958378"><ele>42.666666666666664</ele><time>2026-04-20T16:51:23.01Z</time></trkpt><trkpt lat="53.767452036005714" lon="11.098716593880305"><ele>43.33333333333333</ele><time>2026-04-20T16:51:24.01Z</time></trkpt><trkpt lat="53.7672868952532" lon="11.098604623701938"><ele>44.0</ele><time>2026-04-20T16:51:25.01Z</time></trkpt><trkpt lat="53.76711366384442" lon="11.098494183476586"><ele>44.0</ele><time>2026-04-20T16:51:26.01Z</time></trkpt><trkpt lat="53.76693558111002" lon="11.098396148758152"><ele>44.0</ele><time>2026-04-20T16:51:27.01Z</time></trkpt><trkpt lat="53.76674870218735" lon="11.098294732126524"><ele>44.0</ele><time>2026-04-20T16:51:28.01Z</time></trkpt><trkpt lat="53.76659713031363" lon="11.09815230037403"><ele>44.33333333333333</ele><time>2026-04-20T16:51:29.011Z</time></trkpt><trkpt lat="53.76644576286181" lon="11.09799520493968"><ele>44.666666666666664</ele><time>2026-04-20T16:51:30.011Z</time></trkpt><trkpt lat="53.76634520257361" lon="11.09781832901677"><ele>45.0</ele><time>2026-04-20T16:51:31.011Z</time></trkpt><trkpt lat="53.76625937635514" lon="11.097603039029556"><ele>45.0</ele><time>2026-04-20T16:51:32.011Z</time></trkpt><trkpt lat="53.76618526206424" lon="11.097362973932645"><ele>45.0</ele><time>2026-04-20T16:51:33.011Z</time></trkpt><trkpt lat="53.766111644258125" lon="11.097111903104494"><ele>45.0</ele><time>2026-04-20T16:51:34.011Z</time></trkpt><trkpt lat="53.76603262444614" lon="11.09684240844062"><ele>45.666666666666664</ele><time>2026-04-20T16:51:35.011Z</time></trkpt><trkpt lat="53.76595050465852" lon="11.096564664990327"><ele>46.33333333333333</ele><time>2026-04-20T16:51:36.011Z</time></trkpt><trkpt lat="53.765875451645584" lon="11.09631126573509"><ele>47.0</ele><time>2026-04-20T16:51:37.011Z</time></trkpt><trkpt lat="53.76579966835384" lon="11.096055117842335"><ele>47.0</ele><time>2026-04-20T16:51:38.011Z</time></trkpt><trkpt lat="53.765723198069935" lon="11.095796938663538"><ele>47.0</ele><time>2026-04-20T16:51:39.011Z</time></trkpt><trkpt lat="53.765644330138" lon="11.095530664838805"><ele>47.0</ele><time>2026-04-20T16:51:40.011Z</time></trkpt><trkpt lat="53.7655727994796" lon="11.095276004072748"><ele>46.75</ele><time>2026-04-20T16:51:41.011Z</time></trkpt><trkpt lat="53.765530453830266" lon="11.095035376315504"><ele>46.5</ele><time>2026-04-20T16:51:42.011Z</time></trkpt><trkpt lat="53.76550939234961" lon="11.094809646731074"><ele>46.25</ele><time>2026-04-20T16:51:43.011Z</time></trkpt><trkpt lat="53.7655609067882" lon="11.094606910564204"><ele>46.0</ele><time>2026-04-20T16:51:44.011Z</time></trkpt><trkpt lat="53.76561598125347" lon="11.094498299149146"><ele>46.0</ele><time>2026-04-20T16:51:45.011Z</time></trkpt><trkpt lat="53.765710092203655" lon="11.094317760407998"><ele>46.0</ele><time>2026-04-20T16:51:46.011Z</time></trkpt><trkpt lat="53.76582560020014" lon="11.094145950248224"><ele>46.0</ele><time>2026-04-20T16:51:47.011Z</time></trkpt><trkpt lat="53.7659574834552" lon="11.093954677871164"><ele>44.66666666666667</ele><time>2026-04-20T16:51:48.011Z</time></trkpt><trkpt lat="53.7660853026074" lon="11.093762379343083"><ele>43.333333333333336</ele><time>2026-04-20T16:51:49.011Z</time></trkpt><trkpt lat="53.766218000536654" lon="11.09356455700414"><ele>42.0</ele><time>2026-04-20T16:51:50.011Z</time></trkpt><trkpt lat="53.76635633252479" lon="11.093362496107515"><ele>42.333333333333336</ele><time>2026-04-20T16:51:51.011Z</time></trkpt><trkpt lat="53.766492588374824" lon="11.093141464777114"><ele>42.66666666666667</ele><time>2026-04-20T16:51:52.011Z</time></trkpt><trkpt lat="53.766603300571546" lon="11.092885164637416"><ele>43.0</ele><time>2026-04-20T16:51:53.011Z</time></trkpt><trkpt lat="53.76671165844456" lon="11.092642110224697"><ele>42.66666666666667</ele><time>2026-04-20T16:51:54.011Z</time></trkpt><trkpt lat="53.766748214364696" lon="11.09234362263416"><ele>42.333333333333336</ele><time>2026-04-20T16:51:55.011Z</time></trkpt><trkpt lat="53.76676423715231" lon="11.092037127032981"><ele>42.0</ele><time>2026-04-20T16:51:56.011Z</time></trkpt><trkpt lat="53.76675615838166" lon="11.091732590104467"><ele>42.0</ele><time>2026-04-20T16:51:57.011Z</time></trkpt><trkpt lat="53.76678504849211" lon="11.091449305753411"><ele>42.0</ele><time>2026-04-20T16:51:58.011Z</time></trkpt><trkpt lat="53.76681592688297" lon="11.091141899907994"><ele>42.0</ele><time>2026-04-20T16:51:59.011Z</time></trkpt><trkpt lat="53.766819845459985" lon="11.090839885870567"><ele>41.666666666666664</ele><time>2026-04-20T16:52:00.011Z</time></trkpt><trkpt lat="53.7668359904102" lon="11.090526244563563"><ele>41.33333333333333</ele><time>2026-04-20T16:52:01.011Z</time></trkpt><trkpt lat="53.76685130396152" lon="11.090236272463098"><ele>41.0</ele><time>2026-04-20T16:52:02.011Z</time></trkpt><trkpt lat="53.76688944492685" lon="11.089962239220256"><ele>40.0</ele><time>2026-04-20T16:52:03.011Z</time></trkpt><trkpt lat="53.76691940582531" lon="11.089669345671313"><ele>39.0</ele><time>2026-04-20T16:52:04.012Z</time></trkpt><trkpt lat="53.76694409749671" lon="11.089364532564186"><ele>38.0</ele><time>2026-04-20T16:52:05.012Z</time></trkpt><trkpt lat="53.767003090086426" lon="11.089056248368276"><ele>38.0</ele><time>2026-04-20T16:52:06.012Z</time></trkpt><trkpt lat="53.767078801424674" lon="11.088761163765641"><ele>38.0</ele><time>2026-04-20T16:52:07.012Z</time></trkpt><trkpt lat="53.76718290264916" lon="11.088520803523467"><ele>38.0</ele><time>2026-04-20T16:52:08.012Z</time></trkpt><trkpt lat="53.767308479522924" lon="11.088328159790048"><ele>38.0</ele><time>2026-04-20T16:52:09.012Z</time></trkpt><trkpt lat="53.767451569849506" lon="11.088128207341057"><ele>38.0</ele><time>2026-04-20T16:52:10.012Z</time></trkpt><trkpt lat="53.767613092240644" lon="11.087973084182233"><ele>38.0</ele><time>2026-04-20T16:52:11.012Z</time></trkpt><trkpt lat="53.767751574940284" lon="11.087796323668671"><ele>37.666666666666664</ele><time>2026-04-20T16:52:12.012Z</time></trkpt><trkpt lat="53.76789828757175" lon="11.08760733397748"><ele>37.333333333333336</ele><time>2026-04-20T16:52:13.012Z</time></trkpt><trkpt lat="53.768038907307655" lon="11.087399579488261"><ele>37.0</ele><time>2026-04-20T16:52:14.012Z</time></trkpt><trkpt lat="53.76819635146858" lon="11.087213214403489"><ele>37.0</ele><time>2026-04-20T16:52:15.012Z</time></trkpt><trkpt lat="53.768349276835856" lon="11.087021714742166"><ele>37.0</ele><time>2026-04-20T16:52:16.012Z</time></trkpt><trkpt lat="53.768487864101445" lon="11.086830357839162"><ele>37.0</ele><time>2026-04-20T16:52:17.012Z</time></trkpt><trkpt lat="53.76862653680176" lon="11.0866755388444"><ele>36.66666666666667</ele><time>2026-04-20T16:52:18.012Z</time></trkpt><trkpt lat="53.76876206842901" lon="11.086508012034775"><ele>36.333333333333336</ele><time>2026-04-20T16:52:19.012Z</time></trkpt><trkpt lat="53.76890400554391" lon="11.08633438531816"><ele>36.0</ele><time>2026-04-20T16:52:20.012Z</time></trkpt><trkpt lat="53.76903224066944" lon="11.086153293984054"><ele>36.0</ele><time>2026-04-20T16:52:21.012Z</time></trkpt><trkpt lat="53.7691798939996" lon="11.086006539752953"><ele>36.0</ele><time>2026-04-20T16:52:22.012Z</time></trkpt><trkpt lat="53.76933270308275" lon="11.085837377104967"><ele>36.0</ele><time>2026-04-20T16:52:23.012Z</time></trkpt><trkpt lat="53.76948865025424" lon="11.085670507274978"><ele>35.0</ele><time>2026-04-20T16:52:24.012Z</time></trkpt><trkpt lat="53.76962304196269" lon="11.08546682286337"><ele>34.0</ele><time>2026-04-20T16:52:25.012Z</time></trkpt><trkpt lat="53.76979729128955" lon="11.085320741618528"><ele>33.0</ele><time>2026-04-20T16:52:26.012Z</time></trkpt><trkpt lat="53.76994619277328" lon="11.085169228100124"><ele>33.0</ele><time>2026-04-20T16:52:27.012Z</time></trkpt><trkpt lat="53.77010185295093" lon="11.084979603720658"><ele>33.0</ele><time>2026-04-20T16:52:28.012Z</time></trkpt><trkpt lat="53.77025274788236" lon="11.084791176340566"><ele>33.0</ele><time>2026-04-20T16:52:29.012Z</time></trkpt><trkpt lat="53.770402820703794" lon="11.084591410549045"><ele>33.0</ele><time>2026-04-20T16:52:30.012Z</time></trkpt><trkpt lat="53.7705595616999" lon="11.084413781201468"><ele>33.0</ele><time>2026-04-20T16:52:31.014Z</time></trkpt><trkpt lat="53.770697501089295" lon="11.084221180885619"><ele>33.0</ele><time>2026-04-20T16:52:32.014Z</time></trkpt><trkpt lat="53.770855537235256" lon="11.08405105397388"><ele>33.0</ele><time>2026-04-20T16:52:33.014Z</time></trkpt><trkpt lat="53.771016789130364" lon="11.083887580935269"><ele>33.0</ele><time>2026-04-20T16:52:34.013Z</time></trkpt><trkpt lat="53.7711657742624" lon="11.083712271775532"><ele>33.0</ele><time>2026-04-20T16:52:35.012Z</time></trkpt><trkpt lat="53.77128209644154" lon="11.083470219108492"><ele>32.333333333333336</ele><time>2026-04-20T16:52:36.012Z</time></trkpt><trkpt lat="53.77139211360516" lon="11.083217590773323"><ele>31.666666666666668</ele><time>2026-04-20T16:52:37.011Z</time></trkpt><trkpt lat="53.77148549307493" lon="11.082946688748875"><ele>31.0</ele><time>2026-04-20T16:52:38.01Z</time></trkpt><trkpt lat="53.77157440270962" lon="11.082669859783682"><ele>31.333333333333336</ele><time>2026-04-20T16:52:39.009Z</time></trkpt><trkpt lat="53.77166344213008" lon="11.08238509086713"><ele>31.666666666666664</ele><time>2026-04-20T16:52:40.009Z</time></trkpt><trkpt lat="53.771750614484134" lon="11.082113981596752"><ele>32.0</ele><time>2026-04-20T16:52:41.008Z</time></trkpt><trkpt lat="53.77183536935684" lon="11.081851795897926"><ele>33.666666666666664</ele><time>2026-04-20T16:52:42.008Z</time></trkpt><trkpt lat="53.771920026544485" lon="11.081589416132392"><ele>35.333333333333336</ele><time>2026-04-20T16:52:43.007Z</time></trkpt><trkpt lat="53.77200802508148" lon="11.08129884197853"><ele>37.0</ele><time>2026-04-20T16:52:44.007Z</time></trkpt><trkpt lat="53.77208595243256" lon="11.081007435131957"><ele>37.333333333333336</ele><time>2026-04-20T16:52:45.006Z</time></trkpt><trkpt lat="53.77216939965097" lon="11.080733013077783"><ele>37.666666666666664</ele><time>2026-04-20T16:52:46.006Z</time></trkpt><trkpt lat="53.772242230130665" lon="11.080472058643846"><ele>38.0</ele><time>2026-04-20T16:52:47.005Z</time></trkpt><trkpt lat="53.77231252051781" lon="11.080198234665854"><ele>38.0</ele><time>2026-04-20T16:52:48.005Z</time></trkpt><trkpt lat="53.77238626504226" lon="11.07992952685218"><ele>38.0</ele><time>2026-04-20T16:52:49.005Z</time></trkpt><trkpt lat="53.772465078886796" lon="11.079661295132643"><ele>38.0</ele><time>2026-04-20T16:52:50.004Z</time></trkpt><trkpt lat="53.77255026813396" lon="11.079404124518362"><ele>38.0</ele><time>2026-04-20T16:52:51.004Z</time></trkpt><trkpt lat="53.77262155061435" lon="11.079145690119805"><ele>38.0</ele><time>2026-04-20T16:52:52.004Z</time></trkpt><trkpt lat="53.77267769927804" lon="11.078870296217652"><ele>38.0</ele><time>2026-04-20T16:52:53.003Z</time></trkpt><trkpt lat="53.77272428053946" lon="11.07857287858737"><ele>38.0</ele><time>2026-04-20T16:52:54.003Z</time></trkpt><trkpt lat="53.7727583828384" lon="11.078278903199195"><ele>38.0</ele><time>2026-04-20T16:52:55.003Z</time></trkpt><trkpt lat="53.77280498186158" lon="11.077972658819174"><ele>38.0</ele><time>2026-04-20T16:52:56.003Z</time></trkpt><trkpt lat="53.77283699533075" lon="11.077652023885262"><ele>35.33333333333333</ele><time>2026-04-20T16:52:57.003Z</time></trkpt><trkpt lat="53.7728710596881" lon="11.077321347500973"><ele>32.666666666666664</ele><time>2026-04-20T16:52:58.002Z</time></trkpt><trkpt lat="53.77290239366563" lon="11.077023990186317"><ele>30.0</ele><time>2026-04-20T16:52:59.002Z</time></trkpt><trkpt lat="53.77294261501395" lon="11.076715196248237"><ele>28.666666666666664</ele><time>2026-04-20T16:53:00.002Z</time></trkpt><trkpt lat="53.77298940497167" lon="11.076403051720108"><ele>27.333333333333332</ele><time>2026-04-20T16:53:01.002Z</time></trkpt><trkpt lat="53.77303676896701" lon="11.076074490733069"><ele>26.0</ele><time>2026-04-20T16:53:02.002Z</time></trkpt><trkpt lat="53.773054914469164" lon="11.075756119784156"><ele>25.333333333333332</ele><time>2026-04-20T16:53:03.002Z</time></trkpt><trkpt lat="53.7730926678752" lon="11.075424782087534"><ele>24.666666666666664</ele><time>2026-04-20T16:53:04.001Z</time></trkpt><trkpt lat="53.77312821137579" lon="11.07508606105458"><ele>24.0</ele><time>2026-04-20T16:53:05.001Z</time></trkpt><trkpt lat="53.77314885847547" lon="11.074732264314978"><ele>24.0</ele><time>2026-04-20T16:53:06.001Z</time></trkpt><trkpt lat="53.77317269085575" lon="11.074381695350827"><ele>24.0</ele><time>2026-04-20T16:53:07.001Z</time></trkpt><trkpt lat="53.77319645408034" lon="11.07405072318422"><ele>24.0</ele><time>2026-04-20T16:53:08.001Z</time></trkpt><trkpt lat="53.773232672899056" lon="11.073736745298387"><ele>24.333333333333336</ele><time>2026-04-20T16:53:09.001Z</time></trkpt><trkpt lat="53.773259535805416" lon="11.073394564405179"><ele>24.666666666666668</ele><time>2026-04-20T16:53:10.001Z</time></trkpt><trkpt lat="53.77330035216975" lon="11.07309983926319"><ele>25.0</ele><time>2026-04-20T16:53:11.001Z</time></trkpt><trkpt lat="53.773327563837704" lon="11.072792232341243"><ele>25.0</ele><time>2026-04-20T16:53:12.001Z</time></trkpt><trkpt lat="53.77335595678547" lon="11.072487265684197"><ele>25.0</ele><time>2026-04-20T16:53:13.001Z</time></trkpt><trkpt lat="53.773405544072766" lon="11.072165322704274"><ele>25.0</ele><time>2026-04-20T16:53:14Z</time></trkpt><trkpt lat="53.77340894645672" lon="11.07187259651424"><ele>26.333333333333336</ele><time>2026-04-20T16:53:15Z</time></trkpt><trkpt lat="53.77345180513035" lon="11.071577860334507"><ele>27.666666666666664</ele><time>2026-04-20T16:53:16Z</time></trkpt><trkpt lat="53.773479598349816" lon="11.071295313097279"><ele>29.0</ele><time>2026-04-20T16:53:17Z</time></trkpt><trkpt lat="53.77350757764438" lon="11.071010874264514"><ele>29.666666666666664</ele><time>2026-04-20T16:53:18Z</time></trkpt><trkpt lat="53.77353754443039" lon="11.07070455832901"><ele>30.333333333333336</ele><time>2026-04-20T16:53:19Z</time></trkpt><trkpt lat="53.77356438917186" lon="11.070429173675878"><ele>31.0</ele><time>2026-04-20T16:53:20Z</time></trkpt><trkpt lat="53.77359467656101" lon="11.07011847298833"><ele>31.0</ele><time>2026-04-20T16:53:21Z</time></trkpt><trkpt lat="53.77362166134032" lon="11.069821132985982"><ele>31.0</ele><time>2026-04-20T16:53:22Z</time></trkpt><trkpt lat="53.77364729227824" lon="11.069522282263582"><ele>31.0</ele><time>2026-04-20T16:53:23Z</time></trkpt><trkpt lat="53.7736842489493" lon="11.069235015058277"><ele>29.666666666666668</ele><time>2026-04-20T16:53:24Z</time></trkpt><trkpt lat="53.77371745856287" lon="11.068939143763998"><ele>28.333333333333336</ele><time>2026-04-20T16:53:25Z</time></trkpt><trkpt lat="53.773759187434806" lon="11.068634343535301"><ele>27.0</ele><time>2026-04-20T16:53:26Z</time></trkpt><trkpt lat="53.77380916722843" lon="11.068319068544682"><ele>26.666666666666664</ele><time>2026-04-20T16:53:27Z</time></trkpt><trkpt lat="53.773867336589646" lon="11.068005047031546"><ele>26.333333333333332</ele><time>2026-04-20T16:53:28Z</time></trkpt><trkpt lat="53.77392835121733" lon="11.067731657928022"><ele>26.0</ele><time>2026-04-20T16:53:29Z</time></trkpt><trkpt lat="53.77400872192592" lon="11.06742326664922"><ele>26.0</ele><time>2026-04-20T16:53:30Z</time></trkpt><trkpt lat="53.774086961653985" lon="11.067139405890932"><ele>26.0</ele><time>2026-04-20T16:53:31Z</time></trkpt><trkpt lat="53.77417025237919" lon="11.066874258672268"><ele>26.0</ele><time>2026-04-20T16:53:32Z</time></trkpt><trkpt lat="53.7742570295817" lon="11.066620333371912"><ele>26.0</ele><time>2026-04-20T16:53:33Z</time></trkpt><trkpt lat="53.7743465091393" lon="11.06634064697975"><ele>26.0</ele><time>2026-04-20T16:53:34Z</time></trkpt><trkpt lat="53.774453458476614" lon="11.06606921203793"><ele>26.0</ele><time>2026-04-20T16:53:35Z</time></trkpt><trkpt lat="53.774556377397985" lon="11.065798225153467"><ele>26.0</ele><time>2026-04-20T16:53:36Z</time></trkpt><trkpt lat="53.774651765405714" lon="11.065518253325036"><ele>26.0</ele><time>2026-04-20T16:53:37Z</time></trkpt><trkpt lat="53.77475592136311" lon="11.065260504289038"><ele>26.0</ele><time>2026-04-20T16:53:38Z</time></trkpt><trkpt lat="53.774845925547815" lon="11.064992624517355"><ele>26.666666666666664</ele><time>2026-04-20T16:53:39Z</time></trkpt><trkpt lat="53.774935622770755" lon="11.064716993765266"><ele>27.333333333333336</ele><time>2026-04-20T16:53:40Z</time></trkpt><trkpt lat="53.77503482452502" lon="11.064467127940578"><ele>28.0</ele><time>2026-04-20T16:53:41Z</time></trkpt><trkpt lat="53.77515218222626" lon="11.06424827232716"><ele>27.333333333333336</ele><time>2026-04-20T16:53:42Z</time></trkpt><trkpt lat="53.77527283959039" lon="11.064037033976104"><ele>26.666666666666664</ele><time>2026-04-20T16:53:42.999Z</time></trkpt><trkpt lat="53.775405231334574" lon="11.063843108963283"><ele>26.0</ele><time>2026-04-20T16:53:43.999Z</time></trkpt><trkpt lat="53.775540446616255" lon="11.063645711164394"><ele>26.0</ele><time>2026-04-20T16:53:44.999Z</time></trkpt><trkpt lat="53.775673753041175" lon="11.063450968674903"><ele>26.0</ele><time>2026-04-20T16:53:45.999Z</time></trkpt><trkpt lat="53.77580548459359" lon="11.06325237159751"><ele>26.0</ele><time>2026-04-20T16:53:46.999Z</time></trkpt><trkpt lat="53.77593709560063" lon="11.063069107843212"><ele>27.333333333333332</ele><time>2026-04-20T16:53:47.999Z</time></trkpt><trkpt lat="53.77607067692414" lon="11.062871876526305"><ele>28.666666666666664</ele><time>2026-04-20T16:53:48.999Z</time></trkpt><trkpt lat="53.77619684324317" lon="11.062685593536214"><ele>30.0</ele><time>2026-04-20T16:53:49.999Z</time></trkpt><trkpt lat="53.776319931549494" lon="11.062508088990576"><ele>30.0</ele><time>2026-04-20T16:53:50.999Z</time></trkpt><trkpt lat="53.77645564160515" lon="11.062311244247415"><ele>30.0</ele><time>2026-04-20T16:53:51.999Z</time></trkpt><trkpt lat="53.77657778830822" lon="11.062130971912378"><ele>30.0</ele><time>2026-04-20T16:53:52.999Z</time></trkpt><trkpt lat="53.77670156933466" lon="11.061950781341867"><ele>30.0</ele><time>2026-04-20T16:53:53.999Z</time></trkpt><trkpt lat="53.77682674199748" lon="11.061768641271808"><ele>30.0</ele><time>2026-04-20T16:53:54.999Z</time></trkpt><trkpt lat="53.77694729779358" lon="11.061593219109378"><ele>30.0</ele><time>2026-04-20T16:53:55.999Z</time></trkpt><trkpt lat="53.7770612327734" lon="11.061419293489152"><ele>29.666666666666664</ele><time>2026-04-20T16:53:56.999Z</time></trkpt><trkpt lat="53.777173740746335" lon="11.061231260075811"><ele>29.333333333333332</ele><time>2026-04-20T16:53:57.999Z</time></trkpt><trkpt lat="53.77727789742265" lon="11.061046178868919"><ele>29.0</ele><time>2026-04-20T16:53:58.999Z</time></trkpt><trkpt lat="53.777358572479045" lon="11.06085108215695"><ele>29.25</ele><time>2026-04-20T16:53:59.999Z</time></trkpt><trkpt lat="53.777454683250774" lon="11.06068758296847"><ele>29.5</ele><time>2026-04-20T16:54:00.999Z</time></trkpt><trkpt lat="53.77753452610432" lon="11.060502644238055"><ele>29.75</ele><time>2026-04-20T16:54:01.999Z</time></trkpt><trkpt lat="53.77761099770637" lon="11.060313112826048"><ele>30.0</ele><time>2026-04-20T16:54:02.999Z</time></trkpt><trkpt lat="53.77767999492782" lon="11.060135602465817"><ele>30.0</ele><time>2026-04-20T16:54:03.999Z</time></trkpt><trkpt lat="53.77774780298133" lon="11.059953319413028"><ele>30.0</ele><time>2026-04-20T16:54:04.999Z</time></trkpt><trkpt lat="53.77782052458384" lon="11.059753608357086"><ele>30.0</ele><time>2026-04-20T16:54:05.999Z</time></trkpt><trkpt lat="53.77789688313494" lon="11.059553992468343"><ele>30.0</ele><time>2026-04-20T16:54:06.999Z</time></trkpt><trkpt lat="53.77797523566902" lon="11.059348705146807"><ele>30.25</ele><time>2026-04-20T16:54:07.999Z</time></trkpt><trkpt lat="53.7780491281236" lon="11.059154781717652"><ele>30.5</ele><time>2026-04-20T16:54:08.999Z</time></trkpt><trkpt lat="53.77812675656467" lon="11.058946899164336"><ele>30.75</ele><time>2026-04-20T16:54:09.999Z</time></trkpt><trkpt lat="53.77819820346767" lon="11.058737909418277"><ele>31.0</ele><time>2026-04-20T16:54:10.999Z</time></trkpt><trkpt lat="53.77825327269496" lon="11.058530140823366"><ele>31.5</ele><time>2026-04-20T16:54:11.999Z</time></trkpt><trkpt lat="53.77828837043585" lon="11.058305824764625"><ele>32.0</ele><time>2026-04-20T16:54:12.999Z</time></trkpt><trkpt lat="53.77830151913934" lon="11.058064252004131"><ele>32.5</ele><time>2026-04-20T16:54:13.999Z</time></trkpt><trkpt lat="53.778305757903155" lon="11.057834549505355"><ele>33.0</ele><time>2026-04-20T16:54:14.999Z</time></trkpt><trkpt lat="53.77828268965668" lon="11.057611515442218"><ele>32.6</ele><time>2026-04-20T16:54:15.999Z</time></trkpt><trkpt lat="53.778261074993424" lon="11.05741378419009"><ele>32.199999999999996</ele><time>2026-04-20T16:54:16.999Z</time></trkpt><trkpt lat="53.77819056474174" lon="11.057251346686384"><ele>31.8</ele><time>2026-04-20T16:54:17.999Z</time></trkpt><trkpt lat="53.778159560379024" lon="11.057100647524715"><ele>31.4</ele><time>2026-04-20T16:54:18.999Z</time></trkpt><trkpt lat="53.77813086311702" lon="11.056954209406847"><ele>31.0</ele><time>2026-04-20T16:54:19.999Z</time></trkpt><trkpt lat="53.77810635553634" lon="11.056823301338067"><ele>31.000000000000004</ele><time>2026-04-20T16:54:20.999Z</time></trkpt><trkpt lat="53.778086661453926" lon="11.056714985881106"><ele>31.0</ele><time>2026-04-20T16:54:21.999Z</time></trkpt><trkpt lat="53.778058893037226" lon="11.056582255025623"><ele>31.0</ele><time>2026-04-20T16:54:23.999Z</time></trkpt><trkpt lat="53.77797352298669" lon="11.056678989784281"><ele>31.0</ele><time>2026-04-20T16:54:24.999Z</time></trkpt><trkpt lat="53.77791201834209" lon="11.056740711112202"><ele>31.000000000000004</ele><time>2026-04-20T16:54:26.999Z</time></trkpt><trkpt lat="53.777990464172966" lon="11.056704628557563"><ele>31.0</ele><time>2026-04-20T16:54:45.999Z</time></trkpt><trkpt lat="53.77811230628271" lon="11.056938549766427"><ele>31.0</ele><time>2026-04-20T16:54:47.999Z</time></trkpt><trkpt lat="53.77814568701957" lon="11.057062662194411"><ele>31.0</ele><time>2026-04-20T16:54:48.999Z</time></trkpt><trkpt lat="53.77814334215697" lon="11.057204090623129"><ele>31.0</ele><time>2026-04-20T16:54:49.999Z</time></trkpt><trkpt lat="53.77817332419252" lon="11.057338598155853"><ele>31.0</ele><time>2026-04-20T16:54:50.999Z</time></trkpt><trkpt lat="53.778212271337324" lon="11.057508380359403"><ele>31.0</ele><time>2026-04-20T16:54:51.999Z</time></trkpt><trkpt lat="53.77823749780563" lon="11.057703500611355"><ele>31.5</ele><time>2026-04-20T16:54:52.999Z</time></trkpt><trkpt lat="53.778235798879614" lon="11.057902053887899"><ele>32.0</ele><time>2026-04-20T16:54:53.999Z</time></trkpt><trkpt lat="53.77825293803494" lon="11.058105762926896"><ele>32.5</ele><time>2026-04-20T16:54:54.999Z</time></trkpt><trkpt lat="53.77826003913643" lon="11.058347166212926"><ele>33.0</ele><time>2026-04-20T16:54:55.999Z</time></trkpt><trkpt lat="53.77820335816925" lon="11.058593605774798"><ele>33.0</ele><time>2026-04-20T16:54:56.999Z</time></trkpt><trkpt lat="53.778153192668796" lon="11.058763147800086"><ele>33.0</ele><time>2026-04-20T16:54:57.999Z</time></trkpt><trkpt lat="53.77807706404074" lon="11.058975440961126"><ele>33.0</ele><time>2026-04-20T16:54:58.999Z</time></trkpt><trkpt lat="53.777994542572436" lon="11.059194300944345"><ele>33.0</ele><time>2026-04-20T16:54:59.999Z</time></trkpt><trkpt lat="53.77790485220695" lon="11.059429684420857"><ele>32.333333333333336</ele><time>2026-04-20T16:55:00.999Z</time></trkpt><trkpt lat="53.777812659214376" lon="11.059670720309494"><ele>31.666666666666668</ele><time>2026-04-20T16:55:01.999Z</time></trkpt><trkpt lat="53.77772778175222" lon="11.05990119115809"><ele>31.0</ele><time>2026-04-20T16:55:02.999Z</time></trkpt><trkpt lat="53.77763390923617" lon="11.060152614751951"><ele>30.666666666666668</ele><time>2026-04-20T16:55:03.999Z</time></trkpt><trkpt lat="53.777557616899145" lon="11.060386068781924"><ele>30.333333333333336</ele><time>2026-04-20T16:55:04.999Z</time></trkpt><trkpt lat="53.77745638461859" lon="11.06058956421489"><ele>30.0</ele><time>2026-04-20T16:55:05.999Z</time></trkpt><trkpt lat="53.77736004987051" lon="11.060798376225012"><ele>29.666666666666664</ele><time>2026-04-20T16:55:06.999Z</time></trkpt><trkpt lat="53.777249190510226" lon="11.061015894468941"><ele>29.333333333333332</ele><time>2026-04-20T16:55:07.999Z</time></trkpt><trkpt lat="53.77714325759132" lon="11.061235299483188"><ele>29.0</ele><time>2026-04-20T16:55:08.999Z</time></trkpt><trkpt lat="53.7770178438072" lon="11.061410484055111"><ele>29.0</ele><time>2026-04-20T16:55:09.999Z</time></trkpt><trkpt lat="53.77689481072459" lon="11.06159550262761"><ele>29.0</ele><time>2026-04-20T16:55:10.999Z</time></trkpt><trkpt lat="53.776759261978974" lon="11.061792741184897"><ele>29.0</ele><time>2026-04-20T16:55:11.999Z</time></trkpt><trkpt lat="53.77661528044882" lon="11.062002250265525"><ele>29.333333333333332</ele><time>2026-04-20T16:55:12.999Z</time></trkpt><trkpt lat="53.77647192088988" lon="11.062212674768235"><ele>29.666666666666664</ele><time>2026-04-20T16:55:13.999Z</time></trkpt><trkpt lat="53.77632842250976" lon="11.06242219848992"><ele>30.0</ele><time>2026-04-20T16:55:14.999Z</time></trkpt><trkpt lat="53.7761848821698" lon="11.062628417020354"><ele>30.0</ele><time>2026-04-20T16:55:15.999Z</time></trkpt><trkpt lat="53.77605180666621" lon="11.062825181407458"><ele>30.0</ele><time>2026-04-20T16:55:16.999Z</time></trkpt><trkpt lat="53.77592407989216" lon="11.063013768433562"><ele>30.0</ele><time>2026-04-20T16:55:17.999Z</time></trkpt><trkpt lat="53.77579311074803" lon="11.063196977940326"><ele>28.666666666666664</ele><time>2026-04-20T16:55:18.999Z</time></trkpt><trkpt lat="53.77566726866706" lon="11.063402532294337"><ele>27.333333333333332</ele><time>2026-04-20T16:55:19.999Z</time></trkpt><trkpt lat="53.77553434381378" lon="11.063614815704899"><ele>26.0</ele><time>2026-04-20T16:55:20.999Z</time></trkpt><trkpt lat="53.7754123259125" lon="11.063767374105767"><ele>26.0</ele><time>2026-04-20T16:55:21.999Z</time></trkpt><trkpt lat="53.77527626661616" lon="11.06398633237203"><ele>26.0</ele><time>2026-04-20T16:55:22.999Z</time></trkpt><trkpt lat="53.77515074535587" lon="11.064191999048106"><ele>26.0</ele><time>2026-04-20T16:55:23.999Z</time></trkpt><trkpt lat="53.77503295876189" lon="11.064403189563143"><ele>26.0</ele><time>2026-04-20T16:55:24.999Z</time></trkpt><trkpt lat="53.774914428964664" lon="11.064620436467424"><ele>26.0</ele><time>2026-04-20T16:55:25.999Z</time></trkpt><trkpt lat="53.77481526868984" lon="11.064872056068985"><ele>26.0</ele><time>2026-04-20T16:55:26.999Z</time></trkpt><trkpt lat="53.77471100987044" lon="11.065136511889756"><ele>26.0</ele><time>2026-04-20T16:55:27.999Z</time></trkpt><trkpt lat="53.774623737159324" lon="11.065419729237124"><ele>26.0</ele><time>2026-04-20T16:55:28.999Z</time></trkpt><trkpt lat="53.77453442445872" lon="11.065685903658782"><ele>26.0</ele><time>2026-04-20T16:55:29.999Z</time></trkpt><trkpt lat="53.77443029054569" lon="11.06592787023759"><ele>26.0</ele><time>2026-04-20T16:55:30.999Z</time></trkpt><trkpt lat="53.77435041596729" lon="11.06614805582696"><ele>26.0</ele><time>2026-04-20T16:55:31.999Z</time></trkpt><trkpt lat="53.774266111066794" lon="11.066384222472655"><ele>26.0</ele><time>2026-04-20T16:55:32.999Z</time></trkpt><trkpt lat="53.774192130545536" lon="11.066627299477213"><ele>26.0</ele><time>2026-04-20T16:55:33.999Z</time></trkpt><trkpt lat="53.77411026912505" lon="11.066870054033155"><ele>26.0</ele><time>2026-04-20T16:55:34.999Z</time></trkpt><trkpt lat="53.774026099399435" lon="11.067113775990206"><ele>26.0</ele><time>2026-04-20T16:55:35.999Z</time></trkpt><trkpt lat="53.77395159969954" lon="11.06735171823682"><ele>26.0</ele><time>2026-04-20T16:55:36.999Z</time></trkpt><trkpt lat="53.77388214718118" lon="11.067589003019162"><ele>26.0</ele><time>2026-04-20T16:55:37.999Z</time></trkpt><trkpt lat="53.77381493653977" lon="11.067829991358979"><ele>26.0</ele><time>2026-04-20T16:55:38.999Z</time></trkpt><trkpt lat="53.77376790624688" lon="11.068114011117025"><ele>26.333333333333332</ele><time>2026-04-20T16:55:39.999Z</time></trkpt><trkpt lat="53.77371467010422" lon="11.068423195860342"><ele>26.666666666666664</ele><time>2026-04-20T16:55:40.999Z</time></trkpt><trkpt lat="53.77366934522153" lon="11.068719102838642"><ele>27.0</ele><time>2026-04-20T16:55:41.999Z</time></trkpt><trkpt lat="53.77363373079363" lon="11.069002932731523"><ele>28.333333333333336</ele><time>2026-04-20T16:55:42.999Z</time></trkpt><trkpt lat="53.7736013670341" lon="11.069296785079784"><ele>29.666666666666668</ele><time>2026-04-20T16:55:43.999Z</time></trkpt><trkpt lat="53.7735704514021" lon="11.069580346470397"><ele>31.0</ele><time>2026-04-20T16:55:44.999Z</time></trkpt><trkpt lat="53.77354498175218" lon="11.069846338874699"><ele>30.0</ele><time>2026-04-20T16:55:45.999Z</time></trkpt><trkpt lat="53.77351607306524" lon="11.070147201736843"><ele>29.0</ele><time>2026-04-20T16:55:46.999Z</time></trkpt><trkpt lat="53.77348800623309" lon="11.070435123065666"><ele>28.0</ele><time>2026-04-20T16:55:47.999Z</time></trkpt><trkpt lat="53.7734598718452" lon="11.070723736885512"><ele>28.333333333333336</ele><time>2026-04-20T16:55:48.999Z</time></trkpt><trkpt lat="53.773431412436196" lon="11.07101437163903"><ele>28.666666666666664</ele><time>2026-04-20T16:55:49.999Z</time></trkpt><trkpt lat="53.773404061791545" lon="11.071292419061999"><ele>29.0</ele><time>2026-04-20T16:55:50.999Z</time></trkpt><trkpt lat="53.773375238185054" lon="11.071585441295602"><ele>28.333333333333332</ele><time>2026-04-20T16:55:51.999Z</time></trkpt><trkpt lat="53.77334685370261" lon="11.071873999052418"><ele>27.666666666666664</ele><time>2026-04-20T16:55:52.999Z</time></trkpt><trkpt lat="53.77331764805102" lon="11.072157590476538"><ele>27.0</ele><time>2026-04-20T16:55:53.999Z</time></trkpt><trkpt lat="53.773288580724945" lon="11.072439534280976"><ele>26.333333333333336</ele><time>2026-04-20T16:55:54.999Z</time></trkpt><trkpt lat="53.773257761498044" lon="11.072741451294286"><ele>25.666666666666668</ele><time>2026-04-20T16:55:55.999Z</time></trkpt><trkpt lat="53.7732274469684" lon="11.073038424381025"><ele>25.0</ele><time>2026-04-20T16:55:56.999Z</time></trkpt><trkpt lat="53.773198653484236" lon="11.073320495432712"><ele>25.0</ele><time>2026-04-20T16:55:57.999Z</time></trkpt><trkpt lat="53.773171227341" lon="11.073592321413768"><ele>25.0</ele><time>2026-04-20T16:55:58.999Z</time></trkpt><trkpt lat="53.773142991353616" lon="11.073875430909288"><ele>25.0</ele><time>2026-04-20T16:55:59.999Z</time></trkpt><trkpt lat="53.77311426219989" lon="11.074163483027181"><ele>24.666666666666668</ele><time>2026-04-20T16:56:00.999Z</time></trkpt><trkpt lat="53.77308618715702" lon="11.074452219654876"><ele>24.333333333333336</ele><time>2026-04-20T16:56:01.999Z</time></trkpt><trkpt lat="53.773058975022686" lon="11.07473858831834"><ele>24.0</ele><time>2026-04-20T16:56:02.999Z</time></trkpt><trkpt lat="53.77303023430663" lon="11.07504293031885"><ele>23.333333333333332</ele><time>2026-04-20T16:56:03.999Z</time></trkpt><trkpt lat="53.77300140245155" lon="11.075344373374902"><ele>22.666666666666664</ele><time>2026-04-20T16:56:04.999Z</time></trkpt><trkpt lat="53.772971682897" lon="11.075632533169257"><ele>22.0</ele><time>2026-04-20T16:56:05.999Z</time></trkpt><trkpt lat="53.772944142014005" lon="11.075899567965076"><ele>23.0</ele><time>2026-04-20T16:56:06.999Z</time></trkpt><trkpt lat="53.772916612645204" lon="11.076166492033314"><ele>24.0</ele><time>2026-04-20T16:56:07.999Z</time></trkpt><trkpt lat="53.77289282574569" lon="11.076402172732415"><ele>25.0</ele><time>2026-04-20T16:56:08.999Z</time></trkpt><trkpt lat="53.77286869554472" lon="11.076645453786085"><ele>26.0</ele><time>2026-04-20T16:56:09.999Z</time></trkpt><trkpt lat="53.772843365916245" lon="11.076900826638719"><ele>27.0</ele><time>2026-04-20T16:56:10.999Z</time></trkpt><trkpt lat="53.772818734474924" lon="11.077149160995074"><ele>28.0</ele><time>2026-04-20T16:56:11.999Z</time></trkpt><trkpt lat="53.77279235839309" lon="11.077399954372463"><ele>29.0</ele><time>2026-04-20T16:56:12.999Z</time></trkpt><trkpt lat="53.77276558363624" lon="11.077644757278403"><ele>30.0</ele><time>2026-04-20T16:56:13.999Z</time></trkpt><trkpt lat="53.772737738086875" lon="11.077886449756221"><ele>31.0</ele><time>2026-04-20T16:56:14.999Z</time></trkpt><trkpt lat="53.77270930899529" lon="11.07810245331201"><ele>32.0</ele><time>2026-04-20T16:56:15.999Z</time></trkpt><trkpt lat="53.77267584874944" lon="11.078329463424899"><ele>33.0</ele><time>2026-04-20T16:56:16.999Z</time></trkpt><trkpt lat="53.77262449432925" lon="11.078561555327692"><ele>34.0</ele><time>2026-04-20T16:56:17.999Z</time></trkpt><trkpt lat="53.772583808168775" lon="11.078785814279863"><ele>34.0</ele><time>2026-04-20T16:56:18.999Z</time></trkpt><trkpt lat="53.77254306957366" lon="11.078994992291607"><ele>34.0</ele><time>2026-04-20T16:56:19.999Z</time></trkpt><trkpt lat="53.77250817342827" lon="11.07921436897802"><ele>34.0</ele><time>2026-04-20T16:56:20.999Z</time></trkpt><trkpt lat="53.77245616949723" lon="11.079424139186182"><ele>34.0</ele><time>2026-04-20T16:56:21.999Z</time></trkpt><trkpt lat="53.772385182438825" lon="11.079626211138322"><ele>35.333333333333336</ele><time>2026-04-20T16:56:22.999Z</time></trkpt><trkpt lat="53.772329358461434" lon="11.079858919121655"><ele>36.666666666666664</ele><time>2026-04-20T16:56:23.999Z</time></trkpt><trkpt lat="53.77226319959732" lon="11.08010575250544"><ele>38.0</ele><time>2026-04-20T16:56:24.999Z</time></trkpt><trkpt lat="53.772189357313394" lon="11.080325448765867"><ele>38.0</ele><time>2026-04-20T16:56:25.999Z</time></trkpt><trkpt lat="53.77211191788746" lon="11.080575943392507"><ele>38.0</ele><time>2026-04-20T16:56:26.999Z</time></trkpt><trkpt lat="53.77203186893646" lon="11.08082941462413"><ele>38.0</ele><time>2026-04-20T16:56:27.999Z</time></trkpt><trkpt lat="53.771947999498416" lon="11.081092713437606"><ele>37.666666666666664</ele><time>2026-04-20T16:56:28.999Z</time></trkpt><trkpt lat="53.77186037326988" lon="11.081364117944723"><ele>37.333333333333336</ele><time>2026-04-20T16:56:29.999Z</time></trkpt><trkpt lat="53.77178184348492" lon="11.081607345254294"><ele>37.0</ele><time>2026-04-20T16:56:30.999Z</time></trkpt><trkpt lat="53.77169440358349" lon="11.081877837935377"><ele>35.333333333333336</ele><time>2026-04-20T16:56:31.999Z</time></trkpt><trkpt lat="53.77161118511835" lon="11.082135270168811"><ele>33.666666666666664</ele><time>2026-04-20T16:56:32.999Z</time></trkpt><trkpt lat="53.77152231338452" lon="11.082415681667296"><ele>32.0</ele><time>2026-04-20T16:56:33.999Z</time></trkpt><trkpt lat="53.771436773907375" lon="11.082689257258536"><ele>31.666666666666664</ele><time>2026-04-20T16:56:34.999Z</time></trkpt><trkpt lat="53.77135999637475" lon="11.082922681721046"><ele>31.333333333333336</ele><time>2026-04-20T16:56:35.999Z</time></trkpt><trkpt lat="53.77127869287859" lon="11.083151426821736"><ele>31.0</ele><time>2026-04-20T16:56:36.999Z</time></trkpt><trkpt lat="53.77117424120116" lon="11.083345158196446"><ele>30.333333333333336</ele><time>2026-04-20T16:56:37.999Z</time></trkpt><trkpt lat="53.771093246263234" lon="11.083564000625328"><ele>29.666666666666664</ele><time>2026-04-20T16:56:38.999Z</time></trkpt><trkpt lat="53.77099261033596" lon="11.083766056931982"><ele>29.0</ele><time>2026-04-20T16:56:39.999Z</time></trkpt><trkpt lat="53.77086752826908" lon="11.083922718867798"><ele>30.0</ele><time>2026-04-20T16:56:40.999Z</time></trkpt><trkpt lat="53.77072877644321" lon="11.084091658156538"><ele>31.0</ele><time>2026-04-20T16:56:41.999Z</time></trkpt><trkpt lat="53.77058769323035" lon="11.084259940826474"><ele>32.0</ele><time>2026-04-20T16:56:42.999Z</time></trkpt><trkpt lat="53.77044544967688" lon="11.084429087780682"><ele>32.0</ele><time>2026-04-20T16:56:43.999Z</time></trkpt><trkpt lat="53.77030257339276" lon="11.08459898699308"><ele>32.0</ele><time>2026-04-20T16:56:44.999Z</time></trkpt><trkpt lat="53.770162597192034" lon="11.08476543768868"><ele>32.0</ele><time>2026-04-20T16:56:45.999Z</time></trkpt><trkpt lat="53.77003559616358" lon="11.08494902504336"><ele>32.33333333333333</ele><time>2026-04-20T16:56:46.999Z</time></trkpt><trkpt lat="53.76989687076149" lon="11.08508338705992"><ele>32.666666666666664</ele><time>2026-04-20T16:56:47.999Z</time></trkpt><trkpt lat="53.76976185501694" lon="11.085229278660753"><ele>33.0</ele><time>2026-04-20T16:56:48.999Z</time></trkpt><trkpt lat="53.7696286033354" lon="11.085389339654148"><ele>33.0</ele><time>2026-04-20T16:56:49.999Z</time></trkpt><trkpt lat="53.769492657734766" lon="11.085576432321275"><ele>33.0</ele><time>2026-04-20T16:56:50.999Z</time></trkpt><trkpt lat="53.76936410223321" lon="11.08574627333191"><ele>33.0</ele><time>2026-04-20T16:56:51.999Z</time></trkpt><trkpt lat="53.76923303033485" lon="11.085888491211264"><ele>34.0</ele><time>2026-04-20T16:56:52.999Z</time></trkpt><trkpt lat="53.769103205980805" lon="11.086035252406914"><ele>35.0</ele><time>2026-04-20T16:56:53.999Z</time></trkpt><trkpt lat="53.768975358598745" lon="11.086211399640263"><ele>36.0</ele><time>2026-04-20T16:56:54.999Z</time></trkpt><trkpt lat="53.768839933087335" lon="11.086343083794484"><ele>36.0</ele><time>2026-04-20T16:56:55.999Z</time></trkpt><trkpt lat="53.768713810714225" lon="11.08649785903126"><ele>36.0</ele><time>2026-04-20T16:56:56.999Z</time></trkpt><trkpt lat="53.76857698627612" lon="11.086667525908943"><ele>36.0</ele><time>2026-04-20T16:56:57.999Z</time></trkpt><trkpt lat="53.76843489892509" lon="11.086873892797529"><ele>36.333333333333336</ele><time>2026-04-20T16:56:58.999Z</time></trkpt><trkpt lat="53.76828280535913" lon="11.087026926694795"><ele>36.66666666666667</ele><time>2026-04-20T16:56:59.999Z</time></trkpt><trkpt lat="53.7681093293399" lon="11.087211019514402"><ele>37.0</ele><time>2026-04-20T16:57:00.999Z</time></trkpt><trkpt lat="53.76794972958116" lon="11.087395305555539"><ele>36.66666666666667</ele><time>2026-04-20T16:57:01.999Z</time></trkpt><trkpt lat="53.767823185656106" lon="11.08764146688812"><ele>36.333333333333336</ele><time>2026-04-20T16:57:02.999Z</time></trkpt><trkpt lat="53.76767202195588" lon="11.087805019731842"><ele>36.0</ele><time>2026-04-20T16:57:03.999Z</time></trkpt><trkpt lat="53.76752719085041" lon="11.087977912221222"><ele>36.666666666666664</ele><time>2026-04-20T16:57:04.999Z</time></trkpt><trkpt lat="53.76738427517426" lon="11.088156586344548"><ele>37.33333333333333</ele><time>2026-04-20T16:57:05.999Z</time></trkpt><trkpt lat="53.76725264706113" lon="11.088334419665749"><ele>38.0</ele><time>2026-04-20T16:57:06.999Z</time></trkpt><trkpt lat="53.767130175209616" lon="11.088543396507301"><ele>38.0</ele><time>2026-04-20T16:57:07.999Z</time></trkpt><trkpt lat="53.76701579066388" lon="11.088773293016065"><ele>38.0</ele><time>2026-04-20T16:57:08.999Z</time></trkpt><trkpt lat="53.76694117094192" lon="11.089029234348358"><ele>38.0</ele><time>2026-04-20T16:57:09.998Z</time></trkpt><trkpt lat="53.76688048330331" lon="11.089298472668755"><ele>38.666666666666664</ele><time>2026-04-20T16:57:10.998Z</time></trkpt><trkpt lat="53.766858130900054" lon="11.089575880729283"><ele>39.333333333333336</ele><time>2026-04-20T16:57:11.998Z</time></trkpt><trkpt lat="53.766827790336365" lon="11.089866850662586"><ele>40.0</ele><time>2026-04-20T16:57:12.998Z</time></trkpt><trkpt lat="53.766805690134596" lon="11.090146190758988"><ele>40.333333333333336</ele><time>2026-04-20T16:57:13.998Z</time></trkpt><trkpt lat="53.76675674351746" lon="11.090399779751296"><ele>40.666666666666664</ele><time>2026-04-20T16:57:14.998Z</time></trkpt><trkpt lat="53.7667489538044" lon="11.090672309726768"><ele>41.0</ele><time>2026-04-20T16:57:15.998Z</time></trkpt><trkpt lat="53.76672676607676" lon="11.090944678227709"><ele>41.33333333333333</ele><time>2026-04-20T16:57:16.998Z</time></trkpt><trkpt lat="53.76670555077177" lon="11.091224694652764"><ele>41.666666666666664</ele><time>2026-04-20T16:57:17.998Z</time></trkpt><trkpt lat="53.76668467135846" lon="11.091520941986946"><ele>42.0</ele><time>2026-04-20T16:57:18.998Z</time></trkpt><trkpt lat="53.76666679429324" lon="11.091792968468885"><ele>42.0</ele><time>2026-04-20T16:57:19.998Z</time></trkpt><trkpt lat="53.76664957618089" lon="11.092065998308623"><ele>42.0</ele><time>2026-04-20T16:57:20.998Z</time></trkpt><trkpt lat="53.766631310435336" lon="11.092328667559887"><ele>42.0</ele><time>2026-04-20T16:57:21.998Z</time></trkpt><trkpt lat="53.76660957385993" lon="11.092558705069294"><ele>42.0</ele><time>2026-04-20T16:57:22.998Z</time></trkpt><trkpt lat="53.76656297014017" lon="11.09277423850762"><ele>42.0</ele><time>2026-04-20T16:57:23.998Z</time></trkpt><trkpt lat="53.76652744332647" lon="11.092954051600492"><ele>42.0</ele><time>2026-04-20T16:57:24.998Z</time></trkpt><trkpt lat="53.766465012463605" lon="11.093105024732495"><ele>42.0</ele><time>2026-04-20T16:57:25.998Z</time></trkpt><trkpt lat="53.76639527931694" lon="11.093260949639628"><ele>42.0</ele><time>2026-04-20T16:57:26.998Z</time></trkpt><trkpt lat="53.76630280359964" lon="11.093366301324307"><ele>42.0</ele><time>2026-04-20T16:57:27.998Z</time></trkpt><trkpt lat="53.766220562174496" lon="11.09348661005887"><ele>42.0</ele><time>2026-04-20T16:57:28.998Z</time></trkpt><trkpt lat="53.766152534662446" lon="11.09360279958279"><ele>42.0</ele><time>2026-04-20T16:57:29.998Z</time></trkpt><trkpt lat="53.766068540632716" lon="11.093688646240977"><ele>42.0</ele><time>2026-04-20T16:57:30.998Z</time></trkpt><trkpt lat="53.765990717400086" lon="11.093798231379637"><ele>42.6</ele><time>2026-04-20T16:57:31.998Z</time></trkpt><trkpt lat="53.76592479587205" lon="11.093900687006574"><ele>43.2</ele><time>2026-04-20T16:57:32.998Z</time></trkpt><trkpt lat="53.765852424954126" lon="11.09398768341722"><ele>43.8</ele><time>2026-04-20T16:57:33.998Z</time></trkpt><trkpt lat="53.765786758566534" lon="11.0941147388253"><ele>44.4</ele><time>2026-04-20T16:57:34.998Z</time></trkpt><trkpt lat="53.76572180720315" lon="11.094228313824551"><ele>45.0</ele><time>2026-04-20T16:57:35.998Z</time></trkpt><trkpt lat="53.76565452689273" lon="11.094349131530972"><ele>45.0</ele><time>2026-04-20T16:57:36.998Z</time></trkpt><trkpt lat="53.76557501613698" lon="11.094469782425017"><ele>45.0</ele><time>2026-04-20T16:57:37.998Z</time></trkpt><trkpt lat="53.76550142778673" lon="11.094612141359482"><ele>45.0</ele><time>2026-04-20T16:57:38.998Z</time></trkpt><trkpt lat="53.765455809079626" lon="11.094779598014958"><ele>45.0</ele><time>2026-04-20T16:57:39.998Z</time></trkpt><trkpt lat="53.76544614679607" lon="11.094936918515799"><ele>45.0</ele><time>2026-04-20T16:57:40.998Z</time></trkpt><trkpt lat="53.76535343545844" lon="11.095055468484874"><ele>45.2</ele><time>2026-04-20T16:57:41.998Z</time></trkpt><trkpt lat="53.76528829956919" lon="11.095163261303194"><ele>45.4</ele><time>2026-04-20T16:57:42.998Z</time></trkpt><trkpt lat="53.76520486933472" lon="11.09524477399234"><ele>45.599999999999994</ele><time>2026-04-20T16:57:43.998Z</time></trkpt><trkpt lat="53.76513645118191" lon="11.095375315625615"><ele>45.8</ele><time>2026-04-20T16:57:44.998Z</time></trkpt><trkpt lat="53.76504139889423" lon="11.095450794242979"><ele>46.0</ele><time>2026-04-20T16:57:45.998Z</time></trkpt><trkpt lat="53.764942813378255" lon="11.095536673737234"><ele>46.199999999999996</ele><time>2026-04-20T16:57:46.998Z</time></trkpt><trkpt lat="53.76483910969532" lon="11.095667695608117"><ele>46.4</ele><time>2026-04-20T16:57:47.998Z</time></trkpt><trkpt lat="53.76474988829839" lon="11.095763388048711"><ele>46.6</ele><time>2026-04-20T16:57:48.998Z</time></trkpt><trkpt lat="53.76468261873015" lon="11.095839891860575"><ele>46.8</ele><time>2026-04-20T16:57:49.998Z</time></trkpt><trkpt lat="53.76458383959967" lon="11.095901292380647"><ele>47.0</ele><time>2026-04-20T16:57:50.998Z</time></trkpt><trkpt lat="53.7645223619319" lon="11.09599107168368"><ele>47.400000000000006</ele><time>2026-04-20T16:57:51.998Z</time></trkpt><trkpt lat="53.76443878963066" lon="11.096111255412167"><ele>47.800000000000004</ele><time>2026-04-20T16:57:53.998Z</time></trkpt><trkpt lat="53.76455815924799" lon="11.096228566548213"><ele>48.2</ele><time>2026-04-20T16:57:55.998Z</time></trkpt><trkpt lat="53.764608247995994" lon="11.096322526897556"><ele>48.6</ele><time>2026-04-20T16:57:56.998Z</time></trkpt><trkpt lat="53.76472066034623" lon="11.096351203267304"><ele>49.0</ele><time>2026-04-20T16:57:57.998Z</time></trkpt><trkpt lat="53.764870617297376" lon="11.096372917703642"><ele>49.0</ele><time>2026-04-20T16:57:58.998Z</time></trkpt><trkpt lat="53.765014444200766" lon="11.09638040746853"><ele>49.0</ele><time>2026-04-20T16:57:59.998Z</time></trkpt><trkpt lat="53.76512602377787" lon="11.096378992804695"><ele>49.0</ele><time>2026-04-20T16:58:00.998Z</time></trkpt><trkpt lat="53.76522662509118" lon="11.096376918039022"><ele>49.0</ele><time>2026-04-20T16:58:01.998Z</time></trkpt><trkpt lat="53.76530868956609" lon="11.096455142171568"><ele>48.666666666666664</ele><time>2026-04-20T16:58:02.998Z</time></trkpt><trkpt lat="53.765357275840664" lon="11.096639938089812"><ele>48.33333333333333</ele><time>2026-04-20T16:58:03.998Z</time></trkpt><trkpt lat="53.76538897331104" lon="11.096816166078302"><ele>48.0</ele><time>2026-04-20T16:58:04.998Z</time></trkpt><trkpt lat="53.76540541288217" lon="11.096937814214774"><ele>47.666666666666664</ele><time>2026-04-20T16:58:05.998Z</time></trkpt><trkpt lat="53.765442165893155" lon="11.097048618727593"><ele>47.33333333333333</ele><time>2026-04-20T16:58:06.998Z</time></trkpt><trkpt lat="53.76545904206214" lon="11.097160922944134"><ele>47.0</ele><time>2026-04-20T16:58:07.998Z</time></trkpt><trkpt lat="53.76548696237743" lon="11.09728415282664"><ele>47.0</ele><time>2026-04-20T16:58:08.998Z</time></trkpt><trkpt lat="53.765509923571116" lon="11.097407921984765"><ele>47.0</ele><time>2026-04-20T16:58:09.998Z</time></trkpt><trkpt lat="53.76548540200321" lon="11.09756971189643"><ele>47.0</ele><time>2026-04-20T16:58:10.998Z</time></trkpt><trkpt lat="53.76536944698703" lon="11.097664345682967"><ele>47.0</ele><time>2026-04-20T16:58:12.998Z</time></trkpt><trkpt lat="53.76527315515006" lon="11.097630699558197"><ele>47.0</ele><time>2026-04-20T16:58:13.998Z</time></trkpt><trkpt lat="53.76517998933387" lon="11.097627607046459"><ele>47.5</ele><time>2026-04-20T16:58:14.998Z</time></trkpt><trkpt lat="53.765095049655145" lon="11.097623255731156"><ele>48.0</ele><time>2026-04-20T16:58:15.998Z</time></trkpt><trkpt lat="53.76500323251617" lon="11.09762742667881"><ele>48.5</ele><time>2026-04-20T16:58:16.998Z</time></trkpt><trkpt lat="53.76491919235146" lon="11.097626711875966"><ele>49.0</ele><time>2026-04-20T16:58:17.998Z</time></trkpt><trkpt lat="53.76483171794893" lon="11.097626457574208"><ele>49.50000000000001</ele><time>2026-04-20T16:58:18.998Z</time></trkpt><trkpt lat="53.76473470481415" lon="11.097620878132739"><ele>50.0</ele><time>2026-04-20T16:58:19.998Z</time></trkpt><trkpt lat="53.76464146803526" lon="11.097597276797716"><ele>50.0</ele><time>2026-04-20T16:58:21.998Z</time></trkpt><trkpt lat="53.76459710570937" lon="11.09777330639484"><ele>50.0</ele><time>2026-04-20T16:58:22.998Z</time></trkpt><trkpt lat="53.764635527429434" lon="11.097867946161529"><ele>50.0</ele><time>2026-04-20T16:58:25.998Z</time></trkpt></trkseg></trk></gpx>